sensor_id;sensor_type;location;lat;lon;timestamp;temperature;humidity
75471;HTU21D;64051;46.320;48.028;2022-11-20T00:01:18;5.83;80.30
75471;HTU21D;64051;46.320;48.028;2022-11-20T00:03:45;5.82;80.27
75471;HTU21D;64051;46.320;48.028;2022-11-20T00:06:13;5.81;80.29
75471;HTU21D;64051;46.320;48.028;2022-11-20T00:08:40;5.79;80.40
75471;HTU21D;64051;46.320;48.028;2022-11-20T00:11:11;5.80;80.52
75471;HTU21D;64051;46.320;48.028;2022-11-20T00:13:37;5.82;80.56
75471;HTU21D;64051;46.320;48.028;2022-11-20T00:16:05;5.85;80.53
75471;HTU21D;64051;46.320;48.028;2022-11-20T00:18:35;5.86;80.50
75471;HTU21D;64051;46.320;48.028;2022-11-20T00:21:02;5.87;80.85
75471;HTU21D;64051;46.320;48.028;2022-11-20T00:23:29;5.89;80.62
75471;HTU21D;64051;46.320;48.028;2022-11-20T00:25:55;5.90;80.56
75471;HTU21D;64051;46.320;48.028;2022-11-20T00:28:21;5.89;80.65
75471;HTU21D;64051;46.320;48.028;2022-11-20T00:30:47;5.91;80.76
75471;HTU21D;64051;46.320;48.028;2022-11-20T00:33:13;5.95;80.69
75471;HTU21D;64051;46.320;48.028;2022-11-20T00:35:38;5.97;80.75
75471;HTU21D;64051;46.320;48.028;2022-11-20T00:38:04;5.99;80.89
75471;HTU21D;64051;46.320;48.028;2022-11-20T00:40:30;6.01;80.83
75471;HTU21D;64051;46.320;48.028;2022-11-20T00:42:56;6.06;80.72
75471;HTU21D;64051;46.320;48.028;2022-11-20T00:45:22;6.07;80.76
75471;HTU21D;64051;46.320;48.028;2022-11-20T00:47:48;6.10;80.94
75471;HTU21D;64051;46.320;48.028;2022-11-20T00:50:14;6.13;80.81
75471;HTU21D;64051;46.320;48.028;2022-11-20T00:52:40;6.15;80.90
75471;HTU21D;64051;46.320;48.028;2022-11-20T00:55:06;6.19;80.77
75471;HTU21D;64051;46.320;48.028;2022-11-20T00:57:32;6.21;80.80
75471;HTU21D;64051;46.320;48.028;2022-11-20T00:59:58;6.23;80.78
75471;HTU21D;64051;46.320;48.028;2022-11-20T01:02:24;6.25;80.85
75471;HTU21D;64051;46.320;48.028;2022-11-20T01:04:50;6.27;80.93
75471;HTU21D;64051;46.320;48.028;2022-11-20T01:07:16;6.28;81.45
75471;HTU21D;64051;46.320;48.028;2022-11-20T01:09:42;6.30;80.98
75471;HTU21D;64051;46.320;48.028;2022-11-20T01:12:08;6.31;81.09
75471;HTU21D;64051;46.320;48.028;2022-11-20T01:14:35;6.34;81.04
75471;HTU21D;64051;46.320;48.028;2022-11-20T01:17:01;6.33;81.06
75471;HTU21D;64051;46.320;48.028;2022-11-20T01:19:27;6.33;81.02
75471;HTU21D;64051;46.320;48.028;2022-11-20T01:21:54;6.33;81.17
75471;HTU21D;64051;46.320;48.028;2022-11-20T01:24:21;6.30;81.12
75471;HTU21D;64051;46.320;48.028;2022-11-20T01:26:49;6.31;81.11
75471;HTU21D;64051;46.320;48.028;2022-11-20T01:29:18;6.31;81.17
75471;HTU21D;64051;46.320;48.028;2022-11-20T01:31:45;6.31;81.10
75471;HTU21D;64051;46.320;48.028;2022-11-20T01:34:17;6.29;81.57
75471;HTU21D;64051;46.320;48.028;2022-11-20T01:36:44;6.28;81.49
75471;HTU21D;64051;46.320;48.028;2022-11-20T01:39:14;6.28;81.33
75471;HTU21D;64051;46.320;48.028;2022-11-20T01:41:41;6.28;81.35
75471;HTU21D;64051;46.320;48.028;2022-11-20T01:47:35;6.29;81.66
75471;HTU21D;64051;46.320;48.028;2022-11-20T01:50:17;6.28;81.46
75471;HTU21D;64051;46.320;48.028;2022-11-20T01:53:09;6.26;81.46
75471;HTU21D;64051;46.320;48.028;2022-11-20T01:55:37;6.25;81.74
75471;HTU21D;64051;46.320;48.028;2022-11-20T01:58:04;6.24;81.33
75471;HTU21D;64051;46.320;48.028;2022-11-20T02:00:30;6.26;81.33
75471;HTU21D;64051;46.320;48.028;2022-11-20T02:03:00;6.27;81.38
75471;HTU21D;64051;46.320;48.028;2022-11-20T02:08:33;6.24;81.66
75471;HTU21D;64051;46.320;48.028;2022-11-20T02:10:59;6.24;81.52
75471;HTU21D;64051;46.320;48.028;2022-11-20T02:13:25;6.25;81.79
75471;HTU21D;64051;46.320;48.028;2022-11-20T02:16:16;6.27;81.59
75471;HTU21D;64051;46.320;48.028;2022-11-20T02:18:44;6.27;81.65
75471;HTU21D;64051;46.320;48.028;2022-11-20T02:21:37;6.28;81.65
75471;HTU21D;64051;46.320;48.028;2022-11-20T02:24:15;6.29;81.65
75471;HTU21D;64051;46.320;48.028;2022-11-20T02:26:53;6.30;81.73
75471;HTU21D;64051;46.320;48.028;2022-11-20T02:29:25;6.31;81.59
75471;HTU21D;64051;46.320;48.028;2022-11-20T02:31:53;6.31;81.72
75471;HTU21D;64051;46.320;48.028;2022-11-20T02:34:21;6.35;81.86
75471;HTU21D;64051;46.320;48.028;2022-11-20T02:36:47;6.37;81.84
75471;HTU21D;64051;46.320;48.028;2022-11-20T02:39:17;6.36;81.65
75471;HTU21D;64051;46.320;48.028;2022-11-20T02:41:44;6.38;81.72
75471;HTU21D;64051;46.320;48.028;2022-11-20T02:44:10;6.39;81.71
75471;HTU21D;64051;46.320;48.028;2022-11-20T02:46:36;6.40;81.76
75471;HTU21D;64051;46.320;48.028;2022-11-20T02:49:03;6.42;82.12
75471;HTU21D;64051;46.320;48.028;2022-11-20T02:51:30;6.43;81.90
75471;HTU21D;64051;46.320;48.028;2022-11-20T02:53:56;6.44;81.94
75471;HTU21D;64051;46.320;48.028;2022-11-20T02:56:22;6.46;81.81
75471;HTU21D;64051;46.320;48.028;2022-11-20T02:58:48;6.48;81.81
75471;HTU21D;64051;46.320;48.028;2022-11-20T03:01:17;6.50;82.37
75471;HTU21D;64051;46.320;48.028;2022-11-20T03:03:43;6.52;82.14
75471;HTU21D;64051;46.320;48.028;2022-11-20T03:06:09;6.54;82.12
75471;HTU21D;64051;46.320;48.028;2022-11-20T03:08:35;6.58;82.27
75471;HTU21D;64051;46.320;48.028;2022-11-20T03:11:06;6.61;81.98
75471;HTU21D;64051;46.320;48.028;2022-11-20T03:13:33;6.63;82.23
75471;HTU21D;64051;46.320;48.028;2022-11-20T03:16:08;6.66;82.32
75471;HTU21D;64051;46.320;48.028;2022-11-20T03:18:35;6.70;82.53
75471;HTU21D;64051;46.320;48.028;2022-11-20T03:21:00;6.73;83.03
75471;HTU21D;64051;46.320;48.028;2022-11-20T03:23:29;6.79;82.93
75471;HTU21D;64051;46.320;48.028;2022-11-20T03:25:56;6.83;82.52
75471;HTU21D;64051;46.320;48.028;2022-11-20T03:28:22;6.87;82.49
75471;HTU21D;64051;46.320;48.028;2022-11-20T03:30:48;6.93;82.52
75471;HTU21D;64051;46.320;48.028;2022-11-20T03:33:15;6.96;82.36
75471;HTU21D;64051;46.320;48.028;2022-11-20T03:35:41;6.99;82.59
75471;HTU21D;64051;46.320;48.028;2022-11-20T03:38:07;7.03;82.49
75471;HTU21D;64051;46.320;48.028;2022-11-20T03:40:33;7.04;82.27
75471;HTU21D;64051;46.320;48.028;2022-11-20T03:43:00;7.08;82.87
75471;HTU21D;64051;46.320;48.028;2022-11-20T03:45:26;7.10;82.93
75471;HTU21D;64051;46.320;48.028;2022-11-20T03:47:52;7.13;82.84
75471;HTU21D;64051;46.320;48.028;2022-11-20T03:50:17;7.14;83.31
75471;HTU21D;64051;46.320;48.028;2022-11-20T03:52:43;7.17;82.66
75471;HTU21D;64051;46.320;48.028;2022-11-20T03:55:10;7.19;82.78
75471;HTU21D;64051;46.320;48.028;2022-11-20T03:57:37;7.20;82.93
75471;HTU21D;64051;46.320;48.028;2022-11-20T04:00:04;7.24;83.41
75471;HTU21D;64051;46.320;48.028;2022-11-20T04:02:30;7.26;82.76
75471;HTU21D;64051;46.320;48.028;2022-11-20T04:04:56;7.28;82.89
75471;HTU21D;64051;46.320;48.028;2022-11-20T04:07:25;7.31;83.12
75471;HTU21D;64051;46.320;48.028;2022-11-20T04:09:50;7.33;82.96
75471;HTU21D;64051;46.320;48.028;2022-11-20T04:12:16;7.37;82.81
75471;HTU21D;64051;46.320;48.028;2022-11-20T04:14:42;7.38;83.11
75471;HTU21D;64051;46.320;48.028;2022-11-20T04:17:08;7.41;83.00
75471;HTU21D;64051;46.320;48.028;2022-11-20T04:19:34;7.44;83.04
75471;HTU21D;64051;46.320;48.028;2022-11-20T04:22:00;7.46;83.05
75471;HTU21D;64051;46.320;48.028;2022-11-20T04:24:26;7.49;82.91
75471;HTU21D;64051;46.320;48.028;2022-11-20T04:26:52;7.53;83.32
75471;HTU21D;64051;46.320;48.028;2022-11-20T04:29:18;7.54;83.16
75471;HTU21D;64051;46.320;48.028;2022-11-20T04:31:44;7.57;83.16
75471;HTU21D;64051;46.320;48.028;2022-11-20T04:34:11;7.59;83.40
75471;HTU21D;64051;46.320;48.028;2022-11-20T04:36:40;7.63;83.03
75471;HTU21D;64051;46.320;48.028;2022-11-20T04:39:06;7.67;83.06
75471;HTU21D;64051;46.320;48.028;2022-11-20T04:41:35;7.70;83.19
75471;HTU21D;64051;46.320;48.028;2022-11-20T04:44:03;7.74;83.43
75471;HTU21D;64051;46.320;48.028;2022-11-20T04:46:35;7.78;83.60
75471;HTU21D;64051;46.320;48.028;2022-11-20T04:49:02;7.84;84.48
75471;HTU21D;64051;46.320;48.028;2022-11-20T04:51:29;7.88;84.20
75471;HTU21D;64051;46.320;48.028;2022-11-20T04:53:55;7.96;84.30
75471;HTU21D;64051;46.320;48.028;2022-11-20T04:56:22;8.02;84.22
75471;HTU21D;64051;46.320;48.028;2022-11-20T04:58:48;8.09;83.97
75471;HTU21D;64051;46.320;48.028;2022-11-20T05:01:18;8.18;84.49
75471;HTU21D;64051;46.320;48.028;2022-11-20T05:03:45;8.24;84.01
75471;HTU21D;64051;46.320;48.028;2022-11-20T05:06:13;8.32;83.81
75471;HTU21D;64051;46.320;48.028;2022-11-20T05:08:39;8.39;84.40
75471;HTU21D;64051;46.320;48.028;2022-11-20T05:11:08;8.46;84.55
75471;HTU21D;64051;46.320;48.028;2022-11-20T05:13:34;8.53;84.23
75471;HTU21D;64051;46.320;48.028;2022-11-20T05:16:20;8.61;85.16
75471;HTU21D;64051;46.320;48.028;2022-11-20T05:18:47;8.67;84.43
75471;HTU21D;64051;46.320;48.028;2022-11-20T05:21:13;8.73;84.61
75471;HTU21D;64051;46.320;48.028;2022-11-20T05:23:40;8.78;84.68
75471;HTU21D;64051;46.320;48.028;2022-11-20T05:26:11;8.86;83.84
75471;HTU21D;64051;46.320;48.028;2022-11-20T05:28:38;8.92;84.42
75471;HTU21D;64051;46.320;48.028;2022-11-20T05:31:21;8.95;84.45
75471;HTU21D;64051;46.320;48.028;2022-11-20T05:33:47;9.01;84.74
75471;HTU21D;64051;46.320;48.028;2022-11-20T05:36:14;9.05;84.83
75471;HTU21D;64051;46.320;48.028;2022-11-20T05:38:40;9.10;84.29
75471;HTU21D;64051;46.320;48.028;2022-11-20T05:41:15;9.16;84.64
75471;HTU21D;64051;46.320;48.028;2022-11-20T05:43:44;9.21;84.68
75471;HTU21D;64051;46.320;48.028;2022-11-20T05:46:12;9.27;84.91
75471;HTU21D;64051;46.320;48.028;2022-11-20T05:48:39;9.35;84.48
75471;HTU21D;64051;46.320;48.028;2022-11-20T05:51:07;9.45;84.32
75471;HTU21D;64051;46.320;48.028;2022-11-20T05:53:34;9.54;84.29
75471;HTU21D;64051;46.320;48.028;2022-11-20T05:56:10;9.65;84.46
75471;HTU21D;64051;46.320;48.028;2022-11-20T05:58:36;9.70;84.38
75471;HTU21D;64051;46.320;48.028;2022-11-20T06:01:12;9.78;84.52
75471;HTU21D;64051;46.320;48.028;2022-11-20T06:03:39;9.83;84.52
75471;HTU21D;64051;46.320;48.028;2022-11-20T06:06:06;9.92;84.54
75471;HTU21D;64051;46.320;48.028;2022-11-20T06:08:35;9.99;84.64
75471;HTU21D;64051;46.320;48.028;2022-11-20T06:11:05;10.10;85.26
75471;HTU21D;64051;46.320;48.028;2022-11-20T06:13:31;10.20;85.32
75471;HTU21D;64051;46.320;48.028;2022-11-20T06:16:00;10.30;85.29
75471;HTU21D;64051;46.320;48.028;2022-11-20T06:18:27;10.41;85.78
75471;HTU21D;64051;46.320;48.028;2022-11-20T06:23:30;10.63;85.22
75471;HTU21D;64051;46.320;48.028;2022-11-20T06:25:58;10.71;85.00
75471;HTU21D;64051;46.320;48.028;2022-11-20T06:28:26;10.80;84.76
75471;HTU21D;64051;46.320;48.028;2022-11-20T06:30:55;10.89;84.52
75471;HTU21D;64051;46.320;48.028;2022-11-20T06:33:27;10.94;84.73
75471;HTU21D;64051;46.320;48.028;2022-11-20T06:35:59;10.98;84.54
75471;HTU21D;64051;46.320;48.028;2022-11-20T06:38:26;11.04;84.59
75471;HTU21D;64051;46.320;48.028;2022-11-20T06:40:52;11.09;84.90
75471;HTU21D;64051;46.320;48.028;2022-11-20T06:43:18;11.13;84.52
75471;HTU21D;64051;46.320;48.028;2022-11-20T06:45:44;11.20;85.27
75471;HTU21D;64051;46.320;48.028;2022-11-20T06:48:11;11.29;84.71
75471;HTU21D;64051;46.320;48.028;2022-11-20T06:50:37;11.38;84.64
75471;HTU21D;64051;46.320;48.028;2022-11-20T06:53:06;11.53;84.63
75471;HTU21D;64051;46.320;48.028;2022-11-20T06:55:32;11.61;84.46
75471;HTU21D;64051;46.320;48.028;2022-11-20T06:57:58;11.71;84.32
75471;HTU21D;64051;46.320;48.028;2022-11-20T07:00:24;11.78;84.42
75471;HTU21D;64051;46.320;48.028;2022-11-20T07:02:50;11.85;84.35
75471;HTU21D;64051;46.320;48.028;2022-11-20T07:05:17;11.94;84.10
75471;HTU21D;64051;46.320;48.028;2022-11-20T07:07:43;12.02;84.10
75471;HTU21D;64051;46.320;48.028;2022-11-20T07:10:12;12.11;84.10
75471;HTU21D;64051;46.320;48.028;2022-11-20T07:12:38;12.18;83.94
75471;HTU21D;64051;46.320;48.028;2022-11-20T07:15:07;12.26;83.87
75471;HTU21D;64051;46.320;48.028;2022-11-20T07:17:33;12.34;83.84
75471;HTU21D;64051;46.320;48.028;2022-11-20T07:19:59;12.42;83.88
75471;HTU21D;64051;46.320;48.028;2022-11-20T07:22:34;12.51;83.76
75471;HTU21D;64051;46.320;48.028;2022-11-20T07:25:00;12.62;83.70
75471;HTU21D;64051;46.320;48.028;2022-11-20T07:27:33;12.71;83.54
75471;HTU21D;64051;46.320;48.028;2022-11-20T07:30:00;12.80;83.39
75471;HTU21D;64051;46.320;48.028;2022-11-20T07:32:28;12.86;83.23
75471;HTU21D;64051;46.320;48.028;2022-11-20T07:34:54;12.94;83.15
75471;HTU21D;64051;46.320;48.028;2022-11-20T07:37:20;13.00;83.08
75471;HTU21D;64051;46.320;48.028;2022-11-20T07:39:47;13.06;82.81
75471;HTU21D;64051;46.320;48.028;2022-11-20T07:42:15;13.11;82.72
75471;HTU21D;64051;46.320;48.028;2022-11-20T07:44:43;13.16;82.55
75471;HTU21D;64051;46.320;48.028;2022-11-20T07:47:09;13.18;82.39
75471;HTU21D;64051;46.320;48.028;2022-11-20T07:49:35;13.21;82.33
75471;HTU21D;64051;46.320;48.028;2022-11-20T07:52:01;13.24;82.23
75471;HTU21D;64051;46.320;48.028;2022-11-20T07:54:30;13.29;82.19
75471;HTU21D;64051;46.320;48.028;2022-11-20T07:56:59;13.31;82.10
75471;HTU21D;64051;46.320;48.028;2022-11-20T07:59:25;13.33;82.04
75471;HTU21D;64051;46.320;48.028;2022-11-20T08:01:51;13.35;82.01
75471;HTU21D;64051;46.320;48.028;2022-11-20T08:04:21;13.41;82.02
75471;HTU21D;64051;46.320;48.028;2022-11-20T08:06:48;13.47;82.00
75471;HTU21D;64051;46.320;48.028;2022-11-20T08:09:18;13.54;81.84
75471;HTU21D;64051;46.320;48.028;2022-11-20T08:11:44;13.60;81.80
75471;HTU21D;64051;46.320;48.028;2022-11-20T08:14:29;13.67;81.71
75471;HTU21D;64051;46.320;48.028;2022-11-20T08:17:01;13.78;81.65
75471;HTU21D;64051;46.320;48.028;2022-11-20T08:19:33;13.86;81.55
75471;HTU21D;64051;46.320;48.028;2022-11-20T08:22:02;13.92;81.27
75471;HTU21D;64051;46.320;48.028;2022-11-20T08:24:36;13.93;81.13
75471;HTU21D;64051;46.320;48.028;2022-11-20T08:27:02;13.98;81.06
75471;HTU21D;64051;46.320;48.028;2022-11-20T08:29:31;14.03;80.99
75471;HTU21D;64051;46.320;48.028;2022-11-20T08:32:00;14.07;80.91
75471;HTU21D;64051;46.320;48.028;2022-11-20T08:34:26;14.08;80.75
75471;HTU21D;64051;46.320;48.028;2022-11-20T08:36:52;14.11;80.62
75471;HTU21D;64051;46.320;48.028;2022-11-20T08:39:18;14.13;80.55
75471;HTU21D;64051;46.320;48.028;2022-11-20T08:41:50;14.14;80.40
75471;HTU21D;64051;46.320;48.028;2022-11-20T08:44:16;14.19;80.47
75471;HTU21D;64051;46.320;48.028;2022-11-20T08:46:43;14.17;80.17
75471;HTU21D;64051;46.320;48.028;2022-11-20T08:49:11;14.13;80.07
75471;HTU21D;64051;46.320;48.028;2022-11-20T08:51:42;14.10;79.96
75471;HTU21D;64051;46.320;48.028;2022-11-20T08:54:08;14.06;79.96
75471;HTU21D;64051;46.320;48.028;2022-11-20T08:56:37;14.01;79.93
75471;HTU21D;64051;46.320;48.028;2022-11-20T08:59:03;13.97;79.91
75471;HTU21D;64051;46.320;48.028;2022-11-20T09:01:32;13.95;79.84
75471;HTU21D;64051;46.320;48.028;2022-11-20T09:03:58;13.92;79.90
75471;HTU21D;64051;46.320;48.028;2022-11-20T09:06:31;13.89;79.96
75471;HTU21D;64051;46.320;48.028;2022-11-20T09:08:57;13.88;79.88
75471;HTU21D;64051;46.320;48.028;2022-11-20T09:11:23;13.85;79.87
75471;HTU21D;64051;46.320;48.028;2022-11-20T09:13:54;13.85;79.89
75471;HTU21D;64051;46.320;48.028;2022-11-20T09:16:26;13.85;79.88
75471;HTU21D;64051;46.320;48.028;2022-11-20T09:18:52;13.88;79.80
75471;HTU21D;64051;46.320;48.028;2022-11-20T09:21:17;13.84;79.74
75471;HTU21D;64051;46.320;48.028;2022-11-20T09:26:48;13.86;79.66
75471;HTU21D;64051;46.320;48.028;2022-11-20T09:29:14;13.85;79.70
75471;HTU21D;64051;46.320;48.028;2022-11-20T09:31:43;13.86;79.69
75471;HTU21D;64051;46.320;48.028;2022-11-20T09:34:09;13.89;79.59
75471;HTU21D;64051;46.320;48.028;2022-11-20T09:36:36;13.88;79.52
75471;HTU21D;64051;46.320;48.028;2022-11-20T09:39:02;13.89;79.47
75471;HTU21D;64051;46.320;48.028;2022-11-20T09:46:46;13.91;79.18
75471;HTU21D;64051;46.320;48.028;2022-11-20T09:49:36;13.94;79.19
75471;HTU21D;64051;46.320;48.028;2022-11-20T09:52:42;13.98;79.10
75471;HTU21D;64051;46.320;48.028;2022-11-20T09:55:14;14.03;79.08
75471;HTU21D;64051;46.320;48.028;2022-11-20T09:57:47;14.05;79.00
75471;HTU21D;64051;46.320;48.028;2022-11-20T10:00:17;14.10;78.91
75471;HTU21D;64051;46.320;48.028;2022-11-20T10:03:26;14.12;78.59
75471;HTU21D;64051;46.320;48.028;2022-11-20T10:06:03;14.15;78.76
75471;HTU21D;64051;46.320;48.028;2022-11-20T10:08:44;14.21;78.62
75471;HTU21D;64051;46.320;48.028;2022-11-20T10:14:19;14.29;78.14
75471;HTU21D;64051;46.320;48.028;2022-11-20T10:25:39;14.52;77.97
75471;HTU21D;64051;46.320;48.028;2022-11-20T10:28:34;14.63;77.79
75471;HTU21D;64051;46.320;48.028;2022-11-20T10:31:12;14.72;77.57
75471;HTU21D;64051;46.320;48.028;2022-11-20T10:33:43;14.83;77.32
75471;HTU21D;64051;46.320;48.028;2022-11-20T10:36:25;14.94;76.87
75471;HTU21D;64051;46.320;48.028;2022-11-20T10:39:00;14.99;76.62
75471;HTU21D;64051;46.320;48.028;2022-11-20T10:41:34;15.03;76.25
75471;HTU21D;64051;46.320;48.028;2022-11-20T10:44:13;15.03;76.12
75471;HTU21D;64051;46.320;48.028;2022-11-20T10:47:03;15.01;75.98
75471;HTU21D;64051;46.320;48.028;2022-11-20T10:49:38;14.95;76.00
75471;HTU21D;64051;46.320;48.028;2022-11-20T10:52:33;14.86;75.70
75471;HTU21D;64051;46.320;48.028;2022-11-20T11:01:21;14.62;76.02
75471;HTU21D;64051;46.320;48.028;2022-11-20T11:03:58;14.65;76.02
75471;HTU21D;64051;46.320;48.028;2022-11-20T11:06:40;14.71;74.90
75471;HTU21D;64051;46.320;48.028;2022-11-20T11:09:24;14.77;75.73
75471;HTU21D;64051;46.320;48.028;2022-11-20T11:11:53;14.80;75.54
75471;HTU21D;64051;46.320;48.028;2022-11-20T11:14:19;14.83;75.30
75471;HTU21D;64051;46.320;48.028;2022-11-20T11:16:59;14.86;74.86
75471;HTU21D;64051;46.320;48.028;2022-11-20T11:19:25;14.83;74.72
75471;HTU21D;64051;46.320;48.028;2022-11-20T11:21:54;14.80;74.37
75471;HTU21D;64051;46.320;48.028;2022-11-20T11:24:30;14.73;74.09
75471;HTU21D;64051;46.320;48.028;2022-11-20T11:26:59;14.66;74.24
75471;HTU21D;64051;46.320;48.028;2022-11-20T14:39:59;9.39;78.28
75471;HTU21D;64051;46.320;48.028;2022-11-20T14:42:35;9.39;78.41
75471;HTU21D;64051;46.320;48.028;2022-11-20T14:45:07;9.38;78.54
75471;HTU21D;64051;46.320;48.028;2022-11-20T14:47:37;9.41;78.59
75471;HTU21D;64051;46.320;48.028;2022-11-20T14:50:15;9.44;78.62
75471;HTU21D;64051;46.320;48.028;2022-11-20T14:52:53;9.44;78.55
75471;HTU21D;64051;46.320;48.028;2022-11-20T14:55:34;9.41;78.50
75471;HTU21D;64051;46.320;48.028;2022-11-20T14:58:03;9.37;78.47
75471;HTU21D;64051;46.320;48.028;2022-11-20T15:00:31;9.34;78.51
75471;HTU21D;64051;46.320;48.028;2022-11-20T15:02:57;9.31;78.46
75471;HTU21D;64051;46.320;48.028;2022-11-20T15:06:02;9.25;78.66
75471;HTU21D;64051;46.320;48.028;2022-11-20T15:08:32;9.21;78.61
75471;HTU21D;64051;46.320;48.028;2022-11-20T15:11:01;9.16;78.59
75471;HTU21D;64051;46.320;48.028;2022-11-20T15:13:46;9.11;78.68
75471;HTU21D;64051;46.320;48.028;2022-11-20T15:16:22;9.09;78.86
75471;HTU21D;64051;46.320;48.028;2022-11-20T15:18:52;9.02;78.89
75471;HTU21D;64051;46.320;48.028;2022-11-20T15:21:24;9.00;78.92
75471;HTU21D;64051;46.320;48.028;2022-11-20T15:23:52;8.98;79.01
75471;HTU21D;64051;46.320;48.028;2022-11-20T15:26:31;8.94;79.09
75471;HTU21D;64051;46.320;48.028;2022-11-20T15:28:58;8.93;79.19
75471;HTU21D;64051;46.320;48.028;2022-11-20T15:31:27;8.90;79.24
75471;HTU21D;64051;46.320;48.028;2022-11-20T15:33:56;8.86;79.22
75471;HTU21D;64051;46.320;48.028;2022-11-20T15:36:21;8.80;79.18
75471;HTU21D;64051;46.320;48.028;2022-11-20T15:39:00;8.77;79.21
75471;HTU21D;64051;46.320;48.028;2022-11-20T15:41:26;8.72;79.30
75471;HTU21D;64051;46.320;48.028;2022-11-20T15:43:59;8.72;79.26
75471;HTU21D;64051;46.320;48.028;2022-11-20T15:46:30;8.68;79.42
75471;HTU21D;64051;46.320;48.028;2022-11-20T15:49:04;8.65;79.55
75471;HTU21D;64051;46.320;48.028;2022-11-20T15:51:35;8.60;79.59
75471;HTU21D;64051;46.320;48.028;2022-11-20T15:54:09;8.57;79.70
75471;HTU21D;64051;46.320;48.028;2022-11-20T15:56:54;8.49;79.75
75471;HTU21D;64051;46.320;48.028;2022-11-20T15:59:20;8.46;79.82
75471;HTU21D;64051;46.320;48.028;2022-11-20T16:01:46;8.41;79.91
75471;HTU21D;64051;46.320;48.028;2022-11-20T16:04:30;8.35;80.06
75471;HTU21D;64051;46.320;48.028;2022-11-20T16:06:56;8.33;80.05
75471;HTU21D;64051;46.320;48.028;2022-11-20T16:09:22;8.27;80.08
75471;HTU21D;64051;46.320;48.028;2022-11-20T16:11:48;8.23;80.12
75471;HTU21D;64051;46.320;48.028;2022-11-20T16:14:14;8.19;80.15
75471;HTU21D;64051;46.320;48.028;2022-11-20T16:16:58;8.16;80.17
75471;HTU21D;64051;46.320;48.028;2022-11-20T16:19:34;8.13;80.21
75471;HTU21D;64051;46.320;48.028;2022-11-20T16:22:00;8.09;80.17
75471;HTU21D;64051;46.320;48.028;2022-11-20T16:24:41;8.03;80.17
75471;HTU21D;64051;46.320;48.028;2022-11-20T16:27:07;8.00;80.11
75471;HTU21D;64051;46.320;48.028;2022-11-20T16:29:36;7.96;80.18
75471;HTU21D;64051;46.320;48.028;2022-11-20T16:32:02;7.92;80.27
75471;HTU21D;64051;46.320;48.028;2022-11-20T16:34:28;7.88;80.36
75471;HTU21D;64051;46.320;48.028;2022-11-20T16:37:00;7.85;80.49
75471;HTU21D;64051;46.320;48.028;2022-11-20T16:39:29;7.83;80.50
75471;HTU21D;64051;46.320;48.028;2022-11-20T16:41:55;7.84;80.49
75471;HTU21D;64051;46.320;48.028;2022-11-20T16:44:26;7.83;80.56
75471;HTU21D;64051;46.320;48.028;2022-11-20T16:46:55;7.83;80.60
75471;HTU21D;64051;46.320;48.028;2022-11-20T16:49:24;7.81;80.59
75471;HTU21D;64051;46.320;48.028;2022-11-20T16:51:50;7.76;80.61
75471;HTU21D;64051;46.320;48.028;2022-11-20T16:54:19;7.74;80.59
75471;HTU21D;64051;46.320;48.028;2022-11-20T16:56:45;7.71;80.60
75471;HTU21D;64051;46.320;48.028;2022-11-20T16:59:16;7.68;80.63
75471;HTU21D;64051;46.320;48.028;2022-11-20T17:01:42;7.67;80.68
75471;HTU21D;64051;46.320;48.028;2022-11-20T17:04:11;7.64;80.81
75471;HTU21D;64051;46.320;48.028;2022-11-20T17:06:50;7.63;80.82
75471;HTU21D;64051;46.320;48.028;2022-11-20T17:09:21;7.61;80.91
75471;HTU21D;64051;46.320;48.028;2022-11-20T17:11:47;7.61;81.03
75471;HTU21D;64051;46.320;48.028;2022-11-20T17:14:35;7.60;81.04
75471;HTU21D;64051;46.320;48.028;2022-11-20T17:17:03;7.59;81.06
75471;HTU21D;64051;46.320;48.028;2022-11-20T17:19:35;7.58;81.19
75471;HTU21D;64051;46.320;48.028;2022-11-20T17:22:01;7.57;81.27
75471;HTU21D;64051;46.320;48.028;2022-11-20T17:24:30;7.58;81.30
75471;HTU21D;64051;46.320;48.028;2022-11-20T17:26:59;7.56;81.36
75471;HTU21D;64051;46.320;48.028;2022-11-20T17:29:30;7.56;81.43
75471;HTU21D;64051;46.320;48.028;2022-11-20T17:32:02;7.56;81.38
75471;HTU21D;64051;46.320;48.028;2022-11-20T17:34:36;7.56;81.33
75471;HTU21D;64051;46.320;48.028;2022-11-20T17:37:02;7.56;81.43
75471;HTU21D;64051;46.320;48.028;2022-11-20T17:39:29;7.54;81.46
75471;HTU21D;64051;46.320;48.028;2022-11-20T17:41:58;7.55;81.44
75471;HTU21D;64051;46.320;48.028;2022-11-20T17:44:45;7.55;81.51
75471;HTU21D;64051;46.320;48.028;2022-11-20T17:47:14;7.55;81.52
75471;HTU21D;64051;46.320;48.028;2022-11-20T17:49:46;7.55;81.62
75471;HTU21D;64051;46.320;48.028;2022-11-20T17:52:15;7.57;81.75
75471;HTU21D;64051;46.320;48.028;2022-11-20T17:54:43;7.57;81.81
75471;HTU21D;64051;46.320;48.028;2022-11-20T17:57:18;7.56;81.76
75471;HTU21D;64051;46.320;48.028;2022-11-20T18:00:03;7.55;81.84
75471;HTU21D;64051;46.320;48.028;2022-11-20T18:02:38;7.52;81.88
75471;HTU21D;64051;46.320;48.028;2022-11-20T18:05:07;7.50;81.90
75471;HTU21D;64051;46.320;48.028;2022-11-20T18:07:37;7.50;81.87
75471;HTU21D;64051;46.320;48.028;2022-11-20T18:10:13;7.46;81.88
75471;HTU21D;64051;46.320;48.028;2022-11-20T18:12:42;7.45;81.83
75471;HTU21D;64051;46.320;48.028;2022-11-20T18:15:19;7.45;81.87
75471;HTU21D;64051;46.320;48.028;2022-11-20T18:17:52;7.41;81.87
75471;HTU21D;64051;46.320;48.028;2022-11-20T18:20:27;7.40;81.88
75471;HTU21D;64051;46.320;48.028;2022-11-20T18:22:59;7.38;81.89
75471;HTU21D;64051;46.320;48.028;2022-11-20T18:25:25;7.34;81.97
75471;HTU21D;64051;46.320;48.028;2022-11-20T18:28:03;7.32;82.05
75471;HTU21D;64051;46.320;48.028;2022-11-20T18:30:29;7.31;82.07
75471;HTU21D;64051;46.320;48.028;2022-11-20T18:32:55;7.31;82.08
75471;HTU21D;64051;46.320;48.028;2022-11-20T18:35:21;7.30;82.15
75471;HTU21D;64051;46.320;48.028;2022-11-20T18:37:47;7.31;82.10
75471;HTU21D;64051;46.320;48.028;2022-11-20T18:40:19;7.29;82.09
75471;HTU21D;64051;46.320;48.028;2022-11-20T18:42:47;7.29;82.10
75471;HTU21D;64051;46.320;48.028;2022-11-20T18:45:37;7.29;82.14
75471;HTU21D;64051;46.320;48.028;2022-11-20T18:48:03;7.29;82.25
75471;HTU21D;64051;46.320;48.028;2022-11-20T18:50:34;7.33;82.31
75471;HTU21D;64051;46.320;48.028;2022-11-20T18:53:09;7.35;82.41
75471;HTU21D;64051;46.320;48.028;2022-11-20T18:55:44;7.40;82.47
75471;HTU21D;64051;46.320;48.028;2022-11-20T18:58:13;7.44;82.54
75471;HTU21D;64051;46.320;48.028;2022-11-20T19:00:39;7.47;82.56
75471;HTU21D;64051;46.320;48.028;2022-11-20T19:03:05;7.53;82.59
75471;HTU21D;64051;46.320;48.028;2022-11-20T19:05:35;7.58;82.53
75471;HTU21D;64051;46.320;48.028;2022-11-20T19:08:04;7.61;82.48
75471;HTU21D;64051;46.320;48.028;2022-11-20T19:10:30;7.65;82.40
75471;HTU21D;64051;46.320;48.028;2022-11-20T19:13:02;7.69;82.38
75471;HTU21D;64051;46.320;48.028;2022-11-20T19:15:32;7.69;82.42